createdAt,value
2018-02-20T00:01:15.346Z,3.30
2018-02-20T00:03:41.330Z,3.20
2018-02-20T00:06:07.307Z,3.20
2018-02-20T00:08:33.303Z,3.30
2018-02-20T00:10:59.270Z,3.50
2018-02-20T00:13:25.995Z,3.40
2018-02-20T00:15:51.962Z,3.40
2018-02-20T00:18:18.031Z,3.40
2018-02-20T00:20:44.013Z,3.50
2018-02-20T00:23:10.037Z,3.40
2018-02-20T00:25:36.055Z,3.40
2018-02-20T00:28:02.052Z,3.40
2018-02-20T00:30:28.771Z,3.40
2018-02-20T00:32:54.773Z,3.30
2018-02-20T00:35:20.741Z,3.30
2018-02-20T00:37:47.438Z,3.20
2018-02-20T00:40:13.435Z,3.20
2018-02-20T00:42:39.429Z,3.20
2018-02-20T00:45:06.159Z,3.20
2018-02-20T00:47:32.114Z,3.10
2018-02-20T00:49:58.086Z,3.10
2018-02-20T00:52:24.054Z,3.00
2018-02-20T00:54:50.047Z,3.00
2018-02-20T00:57:16.786Z,2.90
2018-02-20T00:59:42.773Z,2.90
2018-02-20T01:02:08.778Z,2.90
2018-02-20T01:04:34.779Z,2.90
2018-02-20T01:07:00.762Z,2.80
2018-02-20T01:09:26.735Z,2.80
2018-02-20T01:11:52.706Z,2.80
2018-02-20T01:14:18.711Z,2.70
2018-02-20T01:16:44.693Z,2.70
2018-02-20T01:19:10.658Z,2.80
2018-02-20T01:21:36.635Z,2.80
2018-02-20T01:24:02.618Z,2.70
2018-02-20T01:26:28.613Z,2.70
2018-02-20T01:28:54.600Z,2.80
2018-02-20T01:31:20.594Z,2.80
2018-02-20T01:33:46.563Z,2.80
2018-02-20T01:36:12.551Z,2.90
2018-02-20T01:38:39.275Z,2.80
2018-02-20T01:41:05.270Z,2.70
2018-02-20T01:43:31.233Z,2.80
2018-02-20T01:45:57.222Z,2.80
2018-02-20T01:48:23.182Z,2.80
2018-02-20T01:50:56.086Z,2.90
